sensor_id;sensor_type;location;lat;lon;timestamp;P1;durP1;ratioP1;P2;durP2;ratioP2
10226;SDS011;15634;48.766;2.272;2023-05-10T00:00:08;8.80;;;2.40;;
10226;SDS011;15634;48.766;2.272;2023-05-10T00:02:35;7.20;;;2.22;;
10226;SDS011;15634;48.766;2.272;2023-05-10T00:05:02;9.95;;;2.63;;
10226;SDS011;15634;48.766;2.272;2023-05-10T00:07:29;4.93;;;2.33;;
10226;SDS011;15634;48.766;2.272;2023-05-10T00:09:56;3.97;;;1.80;;
10226;SDS011;15634;48.766;2.272;2023-05-10T00:12:22;9.88;;;2.30;;
10226;SDS011;15634;48.766;2.272;2023-05-10T00:14:50;6.50;;;2.30;;
10226;SDS011;15634;48.766;2.272;2023-05-10T00:17:17;6.35;;;2.22;;
10226;SDS011;15634;48.766;2.272;2023-05-10T00:19:43;4.70;;;2.05;;
10226;SDS011;15634;48.766;2.272;2023-05-10T00:22:10;8.18;;;2.83;;
10226;SDS011;15634;48.766;2.272;2023-05-10T00:24:37;6.35;;;2.40;;
10226;SDS011;15634;48.766;2.272;2023-05-10T00:27:03;5.47;;;2.67;;
10226;SDS011;15634;48.766;2.272;2023-05-10T00:29:30;9.63;;;2.85;;
10226;SDS011;15634;48.766;2.272;2023-05-10T00:31:58;5.88;;;2.13;;
10226;SDS011;15634;48.766;2.272;2023-05-10T00:34:24;5.25;;;2.00;;
10226;SDS011;15634;48.766;2.272;2023-05-10T00:36:51;7.25;;;1.85;;
10226;SDS011;15634;48.766;2.272;2023-05-10T00:39:17;6.55;;;1.92;;
10226;SDS011;15634;48.766;2.272;2023-05-10T00:41:44;5.95;;;2.00;;
10226;SDS011;15634;48.766;2.272;2023-05-10T00:44:11;7.30;;;2.20;;
10226;SDS011;15634;48.766;2.272;2023-05-10T00:46:37;6.13;;;1.95;;
10226;SDS011;15634;48.766;2.272;2023-05-10T00:49:05;4.78;;;1.75;;
10226;SDS011;15634;48.766;2.272;2023-05-10T00:51:32;9.77;;;2.30;;
10226;SDS011;15634;48.766;2.272;2023-05-10T00:53:59;4.18;;;1.80;;
10226;SDS011;15634;48.766;2.272;2023-05-10T00:56:25;2.65;;;1.60;;
10226;SDS011;15634;48.766;2.272;2023-05-10T00:58:54;5.18;;;2.10;;
10226;SDS011;15634;48.766;2.272;2023-05-10T01:01:22;7.50;;;1.95;;
10226;SDS011;15634;48.766;2.272;2023-05-10T01:03:48;6.50;;;1.90;;
10226;SDS011;15634;48.766;2.272;2023-05-10T01:06:16;6.90;;;1.92;;
10226;SDS011;15634;48.766;2.272;2023-05-10T01:08:43;4.20;;;2.20;;
10226;SDS011;15634;48.766;2.272;2023-05-10T01:11:09;4.78;;;1.83;;
10226;SDS011;15634;48.766;2.272;2023-05-10T01:13:37;5.50;;;1.95;;
10226;SDS011;15634;48.766;2.272;2023-05-10T01:16:05;6.85;;;2.20;;
10226;SDS011;15634;48.766;2.272;2023-05-10T01:18:33;5.55;;;2.03;;
10226;SDS011;15634;48.766;2.272;2023-05-10T01:21:16;4.32;;;1.52;;
10226;SDS011;15634;48.766;2.272;2023-05-10T01:23:53;6.20;;;1.80;;
10226;SDS011;15634;48.766;2.272;2023-05-10T01:26:36;3.03;;;1.70;;
10226;SDS011;15634;48.766;2.272;2023-05-10T01:29:23;4.15;;;1.92;;
10226;SDS011;15634;48.766;2.272;2023-05-10T01:32:09;3.35;;;1.67;;
10226;SDS011;15634;48.766;2.272;2023-05-10T01:34:44;6.28;;;1.60;;
10226;SDS011;15634;48.766;2.272;2023-05-10T01:37:15;7.28;;;1.90;;
10226;SDS011;15634;48.766;2.272;2023-05-10T01:39:47;7.55;;;2.17;;
10226;SDS011;15634;48.766;2.272;2023-05-10T01:42:17;5.10;;;1.88;;
10226;SDS011;15634;48.766;2.272;2023-05-10T01:44:49;3.13;;;1.60;;
10226;SDS011;15634;48.766;2.272;2023-05-10T01:47:23;6.57;;;1.90;;
10226;SDS011;15634;48.766;2.272;2023-05-10T01:49:55;6.28;;;1.73;;
10226;SDS011;15634;48.766;2.272;2023-05-10T01:52:25;3.42;;;1.58;;
10226;SDS011;15634;48.766;2.272;2023-05-10T01:54:55;2.95;;;1.30;;
10226;SDS011;15634;48.766;2.272;2023-05-10T01:57:27;4.18;;;1.58;;
10226;SDS011;15634;48.766;2.272;2023-05-10T01:59:59;2.65;;;1.50;;
10226;SDS011;15634;48.766;2.272;2023-05-10T02:02:27;4.63;;;1.50;;
10226;SDS011;15634;48.766;2.272;2023-05-10T02:04:54;3.88;;;1.65;;
10226;SDS011;15634;48.766;2.272;2023-05-10T02:07:21;3.40;;;1.52;;
10226;SDS011;15634;48.766;2.272;2023-05-10T02:09:48;6.13;;;1.70;;
10226;SDS011;15634;48.766;2.272;2023-05-10T02:12:16;4.60;;;1.65;;
10226;SDS011;15634;48.766;2.272;2023-05-10T02:14:43;5.45;;;1.63;;
10226;SDS011;15634;48.766;2.272;2023-05-10T02:17:11;2.53;;;1.42;;
10226;SDS011;15634;48.766;2.272;2023-05-10T02:19:40;4.78;;;1.70;;
10226;SDS011;15634;48.766;2.272;2023-05-10T02:22:08;3.72;;;1.58;;
10226;SDS011;15634;48.766;2.272;2023-05-10T02:24:35;4.15;;;1.60;;
10226;SDS011;15634;48.766;2.272;2023-05-10T02:27:02;3.58;;;2.10;;
10226;SDS011;15634;48.766;2.272;2023-05-10T02:29:30;4.00;;;1.83;;
10226;SDS011;15634;48.766;2.272;2023-05-10T02:31:57;6.63;;;1.98;;
10226;SDS011;15634;48.766;2.272;2023-05-10T02:34:25;3.35;;;1.50;;
10226;SDS011;15634;48.766;2.272;2023-05-10T02:36:53;5.43;;;1.67;;
10226;SDS011;15634;48.766;2.272;2023-05-10T02:39:21;4.88;;;1.55;;
10226;SDS011;15634;48.766;2.272;2023-05-10T02:41:48;2.75;;;1.55;;
10226;SDS011;15634;48.766;2.272;2023-05-10T02:44:15;2.55;;;1.40;;
10226;SDS011;15634;48.766;2.272;2023-05-10T02:46:43;4.03;;;1.70;;
10226;SDS011;15634;48.766;2.272;2023-05-10T02:49:11;5.43;;;1.70;;
10226;SDS011;15634;48.766;2.272;2023-05-10T02:51:40;3.85;;;1.90;;
10226;SDS011;15634;48.766;2.272;2023-05-10T02:54:10;3.90;;;1.52;;
10226;SDS011;15634;48.766;2.272;2023-05-10T02:56:40;5.40;;;1.75;;
10226;SDS011;15634;48.766;2.272;2023-05-10T02:59:09;8.18;;;2.17;;
10226;SDS011;15634;48.766;2.272;2023-05-10T03:01:36;2.83;;;1.45;;
10226;SDS011;15634;48.766;2.272;2023-05-10T03:04:02;6.18;;;2.22;;
10226;SDS011;15634;48.766;2.272;2023-05-10T03:06:29;5.38;;;1.40;;
10226;SDS011;15634;48.766;2.272;2023-05-10T03:08:56;4.78;;;1.65;;
10226;SDS011;15634;48.766;2.272;2023-05-10T03:11:27;6.28;;;1.92;;
10226;SDS011;15634;48.766;2.272;2023-05-10T03:14:07;3.33;;;1.50;;
10226;SDS011;15634;48.766;2.272;2023-05-10T03:16:39;4.30;;;1.63;;
10226;SDS011;15634;48.766;2.272;2023-05-10T03:19:10;4.97;;;1.40;;
10226;SDS011;15634;48.766;2.272;2023-05-10T03:21:40;3.85;;;2.00;;
10226;SDS011;15634;48.766;2.272;2023-05-10T03:24:08;7.53;;;2.00;;
10226;SDS011;15634;48.766;2.272;2023-05-10T03:26:38;4.30;;;1.70;;
10226;SDS011;15634;48.766;2.272;2023-05-10T03:29:05;3.97;;;1.65;;
10226;SDS011;15634;48.766;2.272;2023-05-10T03:31:32;5.22;;;1.73;;
10226;SDS011;15634;48.766;2.272;2023-05-10T03:33:59;3.22;;;1.80;;
10226;SDS011;15634;48.766;2.272;2023-05-10T03:36:26;3.92;;;1.45;;
10226;SDS011;15634;48.766;2.272;2023-05-10T03:38:52;4.70;;;1.55;;
10226;SDS011;15634;48.766;2.272;2023-05-10T03:41:19;3.75;;;1.38;;
10226;SDS011;15634;48.766;2.272;2023-05-10T03:43:48;5.60;;;1.70;;
10226;SDS011;15634;48.766;2.272;2023-05-10T03:46:14;4.97;;;1.80;;
10226;SDS011;15634;48.766;2.272;2023-05-10T03:48:41;4.03;;;1.98;;
10226;SDS011;15634;48.766;2.272;2023-05-10T03:51:07;3.20;;;1.60;;
10226;SDS011;15634;48.766;2.272;2023-05-10T03:53:34;4.72;;;2.17;;
10226;SDS011;15634;48.766;2.272;2023-05-10T03:56:00;5.78;;;1.88;;
10226;SDS011;15634;48.766;2.272;2023-05-10T03:58:27;4.63;;;1.85;;
10226;SDS011;15634;48.766;2.272;2023-05-10T04:00:55;3.53;;;1.50;;
10226;SDS011;15634;48.766;2.272;2023-05-10T04:03:21;3.85;;;1.67;;
10226;SDS011;15634;48.766;2.272;2023-05-10T04:05:48;5.95;;;1.70;;
10226;SDS011;15634;48.766;2.272;2023-05-10T04:08:14;5.45;;;2.08;;
10226;SDS011;15634;48.766;2.272;2023-05-10T04:10:42;5.10;;;1.60;;
10226;SDS011;15634;48.766;2.272;2023-05-10T04:13:08;5.35;;;1.90;;
10226;SDS011;15634;48.766;2.272;2023-05-10T04:15:35;5.43;;;1.90;;
10226;SDS011;15634;48.766;2.272;2023-05-10T04:18:03;3.25;;;1.67;;
10226;SDS011;15634;48.766;2.272;2023-05-10T04:20:29;4.82;;;1.80;;
10226;SDS011;15634;48.766;2.272;2023-05-10T04:22:58;5.85;;;2.03;;
10226;SDS011;15634;48.766;2.272;2023-05-10T04:25:24;6.07;;;1.75;;
10226;SDS011;15634;48.766;2.272;2023-05-10T04:27:51;3.60;;;1.75;;
10226;SDS011;15634;48.766;2.272;2023-05-10T04:30:18;4.40;;;1.88;;
10226;SDS011;15634;48.766;2.272;2023-05-10T04:32:44;5.32;;;1.77;;
10226;SDS011;15634;48.766;2.272;2023-05-10T04:35:13;5.30;;;1.95;;
10226;SDS011;15634;48.766;2.272;2023-05-10T04:37:39;5.35;;;2.00;;
10226;SDS011;15634;48.766;2.272;2023-05-10T04:40:06;7.07;;;2.20;;
10226;SDS011;15634;48.766;2.272;2023-05-10T04:42:34;5.57;;;2.22;;
10226;SDS011;15634;48.766;2.272;2023-05-10T04:45:00;7.70;;;2.08;;
10226;SDS011;15634;48.766;2.272;2023-05-10T04:47:27;3.38;;;1.48;;
10226;SDS011;15634;48.766;2.272;2023-05-10T04:49:54;3.00;;;1.90;;
10226;SDS011;15634;48.766;2.272;2023-05-10T04:52:22;6.28;;;2.08;;
10226;SDS011;15634;48.766;2.272;2023-05-10T04:54:49;2.80;;;1.60;;
10226;SDS011;15634;48.766;2.272;2023-05-10T04:57:15;4.03;;;1.90;;
10226;SDS011;15634;48.766;2.272;2023-05-10T04:59:42;7.47;;;2.13;;
10226;SDS011;15634;48.766;2.272;2023-05-10T05:02:08;2.70;;;1.80;;
10226;SDS011;15634;48.766;2.272;2023-05-10T05:04:35;2.72;;;1.80;;
10226;SDS011;15634;48.766;2.272;2023-05-10T05:07:02;3.78;;;1.88;;
10226;SDS011;15634;48.766;2.272;2023-05-10T05:09:29;2.53;;;1.75;;
10226;SDS011;15634;48.766;2.272;2023-05-10T05:11:57;4.32;;;2.17;;
10226;SDS011;15634;48.766;2.272;2023-05-10T05:14:23;2.83;;;1.63;;
10226;SDS011;15634;48.766;2.272;2023-05-10T05:16:51;2.42;;;1.92;;
10226;SDS011;15634;48.766;2.272;2023-05-10T05:19:17;4.13;;;1.83;;
10226;SDS011;15634;48.766;2.272;2023-05-10T05:21:44;3.70;;;1.98;;
10226;SDS011;15634;48.766;2.272;2023-05-10T05:24:11;5.80;;;2.10;;
10226;SDS011;15634;48.766;2.272;2023-05-10T05:26:39;4.47;;;1.92;;
10226;SDS011;15634;48.766;2.272;2023-05-10T05:29:05;5.05;;;2.13;;
10226;SDS011;15634;48.766;2.272;2023-05-10T05:31:32;3.88;;;1.60;;
10226;SDS011;15634;48.766;2.272;2023-05-10T05:33:58;5.25;;;2.25;;
10226;SDS011;15634;48.766;2.272;2023-05-10T05:36:25;6.57;;;2.42;;
10226;SDS011;15634;48.766;2.272;2023-05-10T05:38:51;5.97;;;2.28;;
10226;SDS011;15634;48.766;2.272;2023-05-10T05:41:18;4.90;;;1.98;;
10226;SDS011;15634;48.766;2.272;2023-05-10T05:43:46;4.35;;;1.90;;
10226;SDS011;15634;48.766;2.272;2023-05-10T05:46:12;5.82;;;2.00;;
10226;SDS011;15634;48.766;2.272;2023-05-10T05:48:39;5.13;;;1.98;;
10226;SDS011;15634;48.766;2.272;2023-05-10T05:51:06;6.03;;;2.20;;
10226;SDS011;15634;48.766;2.272;2023-05-10T05:53:32;5.68;;;1.95;;
10226;SDS011;15634;48.766;2.272;2023-05-10T05:55:59;3.15;;;1.95;;
10226;SDS011;15634;48.766;2.272;2023-05-10T05:58:25;4.90;;;2.33;;
10226;SDS011;15634;48.766;2.272;2023-05-10T06:00:53;4.72;;;1.98;;
10226;SDS011;15634;48.766;2.272;2023-05-10T06:03:20;3.53;;;1.98;;
10226;SDS011;15634;48.766;2.272;2023-05-10T06:05:46;4.60;;;1.98;;
10226;SDS011;15634;48.766;2.272;2023-05-10T06:08:13;6.20;;;2.22;;
10226;SDS011;15634;48.766;2.272;2023-05-10T06:10:39;5.47;;;2.47;;
10226;SDS011;15634;48.766;2.272;2023-05-10T06:13:06;5.35;;;2.30;;
10226;SDS011;15634;48.766;2.272;2023-05-10T06:15:33;6.15;;;2.78;;
10226;SDS011;15634;48.766;2.272;2023-05-10T06:18:01;5.35;;;2.60;;
10226;SDS011;15634;48.766;2.272;2023-05-10T06:20:27;6.22;;;2.90;;
10226;SDS011;15634;48.766;2.272;2023-05-10T06:22:56;7.75;;;2.50;;
10226;SDS011;15634;48.766;2.272;2023-05-10T06:25:23;6.43;;;2.50;;
10226;SDS011;15634;48.766;2.272;2023-05-10T06:27:49;7.40;;;2.75;;
10226;SDS011;15634;48.766;2.272;2023-05-10T06:30:20;11.05;;;2.63;;
10226;SDS011;15634;48.766;2.272;2023-05-10T06:32:48;8.05;;;2.90;;
10226;SDS011;15634;48.766;2.272;2023-05-10T06:35:16;6.60;;;2.58;;
10226;SDS011;15634;48.766;2.272;2023-05-10T06:37:42;10.88;;;2.70;;
10226;SDS011;15634;48.766;2.272;2023-05-10T06:40:09;7.32;;;2.40;;
10226;SDS011;15634;48.766;2.272;2023-05-10T06:42:36;6.22;;;2.50;;
10226;SDS011;15634;48.766;2.272;2023-05-10T06:45:03;5.72;;;2.33;;
10226;SDS011;15634;48.766;2.272;2023-05-10T06:47:30;5.63;;;2.17;;
10226;SDS011;15634;48.766;2.272;2023-05-10T06:49:57;6.00;;;2.60;;
10226;SDS011;15634;48.766;2.272;2023-05-10T06:52:25;4.55;;;1.90;;
10226;SDS011;15634;48.766;2.272;2023-05-10T06:54:51;5.53;;;2.25;;
10226;SDS011;15634;48.766;2.272;2023-05-10T06:57:18;4.40;;;2.22;;
10226;SDS011;15634;48.766;2.272;2023-05-10T06:59:45;5.18;;;2.30;;
10226;SDS011;15634;48.766;2.272;2023-05-10T07:02:12;6.85;;;2.50;;
10226;SDS011;15634;48.766;2.272;2023-05-10T07:04:39;13.05;;;7.03;;
10226;SDS011;15634;48.766;2.272;2023-05-10T07:07:06;4.40;;;2.20;;
10226;SDS011;15634;48.766;2.272;2023-05-10T07:09:34;3.92;;;2.00;;
10226;SDS011;15634;48.766;2.272;2023-05-10T07:12:01;2.85;;;1.90;;
10226;SDS011;15634;48.766;2.272;2023-05-10T07:14:27;4.72;;;2.15;;
10226;SDS011;15634;48.766;2.272;2023-05-10T07:16:54;6.30;;;2.00;;
10226;SDS011;15634;48.766;2.272;2023-05-10T07:19:21;4.78;;;1.80;;
10226;SDS011;15634;48.766;2.272;2023-05-10T07:21:49;5.72;;;2.20;;
10226;SDS011;15634;48.766;2.272;2023-05-10T07:24:21;2.78;;;1.92;;
10226;SDS011;15634;48.766;2.272;2023-05-10T07:26:49;3.90;;;1.83;;
10226;SDS011;15634;48.766;2.272;2023-05-10T07:29:16;3.88;;;1.73;;
10226;SDS011;15634;48.766;2.272;2023-05-10T07:31:42;3.17;;;2.00;;
10226;SDS011;15634;48.766;2.272;2023-05-10T07:34:09;4.90;;;1.80;;
10226;SDS011;15634;48.766;2.272;2023-05-10T07:36:36;2.80;;;1.77;;
10226;SDS011;15634;48.766;2.272;2023-05-10T07:39:02;5.40;;;2.30;;
10226;SDS011;15634;48.766;2.272;2023-05-10T07:41:29;5.30;;;2.45;;
10226;SDS011;15634;48.766;2.272;2023-05-10T07:43:58;3.35;;;1.90;;
10226;SDS011;15634;48.766;2.272;2023-05-10T07:46:24;10.05;;;4.07;;
10226;SDS011;15634;48.766;2.272;2023-05-10T07:48:51;4.57;;;2.47;;
10226;SDS011;15634;48.766;2.272;2023-05-10T07:51:18;5.75;;;2.92;;
10226;SDS011;15634;48.766;2.272;2023-05-10T07:53:45;5.28;;;2.38;;
10226;SDS011;15634;48.766;2.272;2023-05-10T07:58:58;6.43;;;2.70;;
10226;SDS011;15634;48.766;2.272;2023-05-10T08:01:25;7.82;;;4.00;;
10226;SDS011;15634;48.766;2.272;2023-05-10T08:03:52;4.82;;;2.70;;
10226;SDS011;15634;48.766;2.272;2023-05-10T08:06:19;6.00;;;2.72;;
10226;SDS011;15634;48.766;2.272;2023-05-10T08:08:46;5.15;;;2.60;;
10226;SDS011;15634;48.766;2.272;2023-05-10T08:11:15;4.15;;;2.30;;
10226;SDS011;15634;48.766;2.272;2023-05-10T08:13:42;7.47;;;3.83;;
10226;SDS011;15634;48.766;2.272;2023-05-10T08:16:10;6.30;;;3.22;;
10226;SDS011;15634;48.766;2.272;2023-05-10T08:18:37;4.97;;;2.90;;
10226;SDS011;15634;48.766;2.272;2023-05-10T08:21:04;5.65;;;2.92;;
10226;SDS011;15634;48.766;2.272;2023-05-10T08:23:31;5.35;;;2.10;;
10226;SDS011;15634;48.766;2.272;2023-05-10T08:25:57;5.60;;;2.72;;
10226;SDS011;15634;48.766;2.272;2023-05-10T08:28:24;1.63;;;1.50;;
10226;SDS011;15634;48.766;2.272;2023-05-10T08:30:50;3.08;;;1.83;;
10226;SDS011;15634;48.766;2.272;2023-05-10T08:33:18;4.50;;;2.35;;
10226;SDS011;15634;48.766;2.272;2023-05-10T08:35:45;4.40;;;1.90;;
10226;SDS011;15634;48.766;2.272;2023-05-10T08:38:11;2.92;;;1.95;;
10226;SDS011;15634;48.766;2.272;2023-05-10T08:40:39;4.00;;;2.17;;
10226;SDS011;15634;48.766;2.272;2023-05-10T08:43:10;5.75;;;2.20;;
10226;SDS011;15634;48.766;2.272;2023-05-10T08:45:38;5.65;;;2.45;;
10226;SDS011;15634;48.766;2.272;2023-05-10T08:48:05;6.30;;;2.83;;
10226;SDS011;15634;48.766;2.272;2023-05-10T08:50:34;6.10;;;3.15;;
10226;SDS011;15634;48.766;2.272;2023-05-10T08:53:03;10.55;;;2.75;;
10226;SDS011;15634;48.766;2.272;2023-05-10T08:55:31;6.03;;;2.50;;
10226;SDS011;15634;48.766;2.272;2023-05-10T08:57:58;7.70;;;3.00;;
10226;SDS011;15634;48.766;2.272;2023-05-10T09:00:25;9.25;;;3.20;;
10226;SDS011;15634;48.766;2.272;2023-05-10T09:02:52;10.45;;;3.65;;
10226;SDS011;15634;48.766;2.272;2023-05-10T09:05:19;9.32;;;3.35;;
10226;SDS011;15634;48.766;2.272;2023-05-10T09:07:47;10.05;;;3.30;;
10226;SDS011;15634;48.766;2.272;2023-05-10T09:10:14;11.60;;;3.53;;
10226;SDS011;15634;48.766;2.272;2023-05-10T09:12:40;9.52;;;3.95;;
10226;SDS011;15634;48.766;2.272;2023-05-10T09:15:09;10.98;;;3.38;;
10226;SDS011;15634;48.766;2.272;2023-05-10T09:17:35;12.52;;;3.90;;
10226;SDS011;15634;48.766;2.272;2023-05-10T09:20:03;17.35;;;3.97;;
10226;SDS011;15634;48.766;2.272;2023-05-10T09:22:30;16.20;;;4.45;;
10226;SDS011;15634;48.766;2.272;2023-05-10T09:25:04;13.23;;;3.97;;
10226;SDS011;15634;48.766;2.272;2023-05-10T09:27:32;13.18;;;4.43;;
10226;SDS011;15634;48.766;2.272;2023-05-10T09:29:58;13.35;;;4.18;;
10226;SDS011;15634;48.766;2.272;2023-05-10T09:32:38;12.13;;;4.10;;
10226;SDS011;15634;48.766;2.272;2023-05-10T09:35:06;16.70;;;4.60;;
10226;SDS011;15634;48.766;2.272;2023-05-10T09:37:33;14.00;;;4.00;;
10226;SDS011;15634;48.766;2.272;2023-05-10T09:40:00;16.38;;;4.53;;
10226;SDS011;15634;48.766;2.272;2023-05-10T09:42:28;13.73;;;4.88;;
10226;SDS011;15634;48.766;2.272;2023-05-10T09:44:54;16.60;;;4.60;;
10226;SDS011;15634;48.766;2.272;2023-05-10T09:47:26;19.45;;;5.45;;
10226;SDS011;15634;48.766;2.272;2023-05-10T09:49:53;16.25;;;5.07;;
10226;SDS011;15634;48.766;2.272;2023-05-10T09:52:22;13.27;;;4.88;;
10226;SDS011;15634;48.766;2.272;2023-05-10T09:54:52;18.67;;;4.63;;
10226;SDS011;15634;48.766;2.272;2023-05-10T09:57:20;15.43;;;5.28;;
10226;SDS011;15634;48.766;2.272;2023-05-10T09:59:48;13.43;;;5.15;;
10226;SDS011;15634;48.766;2.272;2023-05-10T10:02:16;15.13;;;4.40;;
10226;SDS011;15634;48.766;2.272;2023-05-10T10:04:42;19.63;;;5.55;;
10226;SDS011;15634;48.766;2.272;2023-05-10T10:07:09;18.80;;;5.65;;
10226;SDS011;15634;48.766;2.272;2023-05-10T10:09:36;23.95;;;5.15;;
10226;SDS011;15634;48.766;2.272;2023-05-10T10:12:03;16.92;;;4.70;;
10226;SDS011;15634;48.766;2.272;2023-05-10T10:14:30;15.85;;;4.65;;
10226;SDS011;15634;48.766;2.272;2023-05-10T10:16:58;17.30;;;4.78;;
10226;SDS011;15634;48.766;2.272;2023-05-10T10:19:26;14.85;;;5.55;;
10226;SDS011;15634;48.766;2.272;2023-05-10T10:21:53;16.05;;;5.20;;
10226;SDS011;15634;48.766;2.272;2023-05-10T10:24:20;15.98;;;4.85;;
10226;SDS011;15634;48.766;2.272;2023-05-10T10:26:47;20.65;;;4.68;;
10226;SDS011;15634;48.766;2.272;2023-05-10T10:29:19;16.90;;;4.97;;
10226;SDS011;15634;48.766;2.272;2023-05-10T10:31:49;12.63;;;4.60;;
10226;SDS011;15634;48.766;2.272;2023-05-10T10:34:25;11.10;;;3.78;;
10226;SDS011;15634;48.766;2.272;2023-05-10T10:36:53;16.48;;;4.35;;
10226;SDS011;15634;48.766;2.272;2023-05-10T10:39:20;13.15;;;4.32;;
10226;SDS011;15634;48.766;2.272;2023-05-10T10:41:51;13.35;;;4.45;;
10226;SDS011;15634;48.766;2.272;2023-05-10T10:44:22;16.40;;;4.40;;
10226;SDS011;15634;48.766;2.272;2023-05-10T10:47:00;14.00;;;4.35;;
10226;SDS011;15634;48.766;2.272;2023-05-10T10:49:49;20.40;;;4.97;;
10226;SDS011;15634;48.766;2.272;2023-05-10T10:52:21;13.00;;;4.75;;
10226;SDS011;15634;48.766;2.272;2023-05-10T10:54:51;13.82;;;4.03;;
10226;SDS011;15634;48.766;2.272;2023-05-10T10:57:20;16.80;;;4.78;;
10226;SDS011;15634;48.766;2.272;2023-05-10T10:59:47;12.43;;;4.88;;
10226;SDS011;15634;48.766;2.272;2023-05-10T11:05:01;11.32;;;3.72;;
10226;SDS011;15634;48.766;2.272;2023-05-10T11:08:12;9.40;;;3.80;;
10226;SDS011;15634;48.766;2.272;2023-05-10T11:10:49;12.07;;;4.20;;
10226;SDS011;15634;48.766;2.272;2023-05-10T11:13:28;13.63;;;4.50;;
10226;SDS011;15634;48.766;2.272;2023-05-10T11:15:56;13.80;;;4.13;;
10226;SDS011;15634;48.766;2.272;2023-05-10T11:18:24;13.35;;;4.00;;
10226;SDS011;15634;48.766;2.272;2023-05-10T11:20:55;12.70;;;4.22;;
10226;SDS011;15634;48.766;2.272;2023-05-10T11:23:22;10.90;;;3.38;;
10226;SDS011;15634;48.766;2.272;2023-05-10T11:25:49;8.35;;;3.50;;
10226;SDS011;15634;48.766;2.272;2023-05-10T11:28:16;14.43;;;3.95;;
10226;SDS011;15634;48.766;2.272;2023-05-10T11:30:43;9.82;;;3.83;;
10226;SDS011;15634;48.766;2.272;2023-05-10T11:33:14;12.27;;;4.03;;
10226;SDS011;15634;48.766;2.272;2023-05-10T11:35:42;12.35;;;3.97;;
10226;SDS011;15634;48.766;2.272;2023-05-10T11:38:10;15.57;;;3.70;;
10226;SDS011;15634;48.766;2.272;2023-05-10T11:40:37;15.60;;;3.70;;
10226;SDS011;15634;48.766;2.272;2023-05-10T11:43:04;9.02;;;3.65;;
10226;SDS011;15634;48.766;2.272;2023-05-10T11:45:31;8.77;;;3.55;;
10226;SDS011;15634;48.766;2.272;2023-05-10T11:47:58;12.45;;;4.05;;
10226;SDS011;15634;48.766;2.272;2023-05-10T11:50:25;10.73;;;4.10;;
10226;SDS011;15634;48.766;2.272;2023-05-10T11:52:52;8.90;;;3.50;;
10226;SDS011;15634;48.766;2.272;2023-05-10T11:55:20;11.10;;;4.35;;
10226;SDS011;15634;48.766;2.272;2023-05-10T11:57:47;11.48;;;3.85;;
10226;SDS011;15634;48.766;2.272;2023-05-10T12:00:18;14.77;;;3.85;;
10226;SDS011;15634;48.766;2.272;2023-05-10T12:02:44;9.65;;;3.72;;
10226;SDS011;15634;48.766;2.272;2023-05-10T12:05:11;11.55;;;3.92;;
10226;SDS011;15634;48.766;2.272;2023-05-10T12:07:38;9.15;;;3.40;;
10226;SDS011;15634;48.766;2.272;2023-05-10T12:10:05;12.02;;;3.90;;
10226;SDS011;15634;48.766;2.272;2023-05-10T12:12:41;9.88;;;3.50;;
10226;SDS011;15634;48.766;2.272;2023-05-10T12:15:12;10.25;;;3.55;;
10226;SDS011;15634;48.766;2.272;2023-05-10T12:17:39;11.48;;;3.40;;
10226;SDS011;15634;48.766;2.272;2023-05-10T12:20:12;10.82;;;3.58;;
10226;SDS011;15634;48.766;2.272;2023-05-10T12:22:40;11.15;;;3.25;;
10226;SDS011;15634;48.766;2.272;2023-05-10T12:25:08;9.00;;;3.38;;
10226;SDS011;15634;48.766;2.272;2023-05-10T12:27:35;7.65;;;3.28;;
10226;SDS011;15634;48.766;2.272;2023-05-10T12:30:04;8.70;;;2.83;;
10226;SDS011;15634;48.766;2.272;2023-05-10T12:32:38;7.75;;;2.65;;
10226;SDS011;15634;48.766;2.272;2023-05-10T12:35:06;8.80;;;3.50;;
10226;SDS011;15634;48.766;2.272;2023-05-10T12:37:33;13.70;;;3.40;;
10226;SDS011;15634;48.766;2.272;2023-05-10T12:40:04;9.93;;;3.63;;
10226;SDS011;15634;48.766;2.272;2023-05-10T12:42:33;11.23;;;3.38;;
10226;SDS011;15634;48.766;2.272;2023-05-10T12:45:00;11.73;;;3.55;;
10226;SDS011;15634;48.766;2.272;2023-05-10T12:47:28;9.20;;;3.95;;
10226;SDS011;15634;48.766;2.272;2023-05-10T12:49:55;8.43;;;3.92;;
10226;SDS011;15634;48.766;2.272;2023-05-10T12:52:21;7.50;;;3.50;;
10226;SDS011;15634;48.766;2.272;2023-05-10T12:54:48;7.40;;;3.30;;
10226;SDS011;15634;48.766;2.272;2023-05-10T12:57:15;7.05;;;3.45;;
10226;SDS011;15634;48.766;2.272;2023-05-10T12:59:41;8.77;;;3.70;;
10226;SDS011;15634;48.766;2.272;2023-05-10T13:02:08;10.77;;;3.50;;
10226;SDS011;15634;48.766;2.272;2023-05-10T13:04:36;9.23;;;3.28;;
10226;SDS011;15634;48.766;2.272;2023-05-10T13:07:04;6.30;;;3.30;;
10226;SDS011;15634;48.766;2.272;2023-05-10T13:09:33;6.70;;;3.25;;
10226;SDS011;15634;48.766;2.272;2023-05-10T13:12:00;8.63;;;3.20;;
10226;SDS011;15634;48.766;2.272;2023-05-10T13:14:27;8.90;;;3.20;;
10226;SDS011;15634;48.766;2.272;2023-05-10T13:16:53;7.78;;;3.20;;
10226;SDS011;15634;48.766;2.272;2023-05-10T13:19:20;9.32;;;3.40;;
10226;SDS011;15634;48.766;2.272;2023-05-10T13:21:48;9.35;;;3.30;;
10226;SDS011;15634;48.766;2.272;2023-05-10T13:24:15;8.20;;;3.40;;
10226;SDS011;15634;48.766;2.272;2023-05-10T13:26:42;8.68;;;3.80;;
10226;SDS011;15634;48.766;2.272;2023-05-10T13:29:09;7.38;;;3.10;;
10226;SDS011;15634;48.766;2.272;2023-05-10T13:31:35;7.90;;;3.40;;
10226;SDS011;15634;48.766;2.272;2023-05-10T13:34:02;8.07;;;3.47;;
10226;SDS011;15634;48.766;2.272;2023-05-10T13:36:29;9.13;;;3.30;;
10226;SDS011;15634;48.766;2.272;2023-05-10T13:38:57;10.20;;;3.72;;
10226;SDS011;15634;48.766;2.272;2023-05-10T13:41:26;8.88;;;3.65;;
10226;SDS011;15634;48.766;2.272;2023-05-10T13:43:53;10.10;;;3.60;;
10226;SDS011;15634;48.766;2.272;2023-05-10T13:46:19;7.60;;;3.42;;
10226;SDS011;15634;48.766;2.272;2023-05-10T13:48:46;9.30;;;3.58;;
10226;SDS011;15634;48.766;2.272;2023-05-10T13:51:12;7.45;;;3.33;;
10226;SDS011;15634;48.766;2.272;2023-05-10T13:53:39;9.82;;;3.85;;
10226;SDS011;15634;48.766;2.272;2023-05-10T13:56:07;9.07;;;3.65;;
10226;SDS011;15634;48.766;2.272;2023-05-10T13:58:33;5.38;;;2.95;;
10226;SDS011;15634;48.766;2.272;2023-05-10T14:01:01;7.38;;;3.03;;
10226;SDS011;15634;48.766;2.272;2023-05-10T14:03:27;7.03;;;2.58;;
10226;SDS011;15634;48.766;2.272;2023-05-10T14:05:54;6.82;;;2.50;;
10226;SDS011;15634;48.766;2.272;2023-05-10T14:08:20;7.50;;;2.92;;
10226;SDS011;15634;48.766;2.272;2023-05-10T14:10:47;5.05;;;2.97;;
10226;SDS011;15634;48.766;2.272;2023-05-10T14:13:17;11.15;;;3.65;;
10226;SDS011;15634;48.766;2.272;2023-05-10T14:15:43;6.55;;;3.10;;
10226;SDS011;15634;48.766;2.272;2023-05-10T14:18:10;9.65;;;4.18;;
10226;SDS011;15634;48.766;2.272;2023-05-10T14:20:36;10.63;;;3.38;;
10226;SDS011;15634;48.766;2.272;2023-05-10T14:23:03;7.00;;;2.75;;
10226;SDS011;15634;48.766;2.272;2023-05-10T14:25:29;7.00;;;3.00;;
10226;SDS011;15634;48.766;2.272;2023-05-10T14:27:56;7.85;;;3.03;;
10226;SDS011;15634;48.766;2.272;2023-05-10T14:30:24;6.97;;;2.70;;
10226;SDS011;15634;48.766;2.272;2023-05-10T14:32:50;6.45;;;2.75;;
10226;SDS011;15634;48.766;2.272;2023-05-10T14:35:18;10.27;;;2.97;;
10226;SDS011;15634;48.766;2.272;2023-05-10T14:37:45;11.15;;;3.10;;
10226;SDS011;15634;48.766;2.272;2023-05-10T14:40:12;9.43;;;3.67;;
10226;SDS011;15634;48.766;2.272;2023-05-10T14:42:40;8.18;;;2.90;;
10226;SDS011;15634;48.766;2.272;2023-05-10T14:45:07;11.52;;;3.30;;
10226;SDS011;15634;48.766;2.272;2023-05-10T14:47:35;7.22;;;2.80;;
10226;SDS011;15634;48.766;2.272;2023-05-10T14:50:02;9.18;;;3.30;;
10226;SDS011;15634;48.766;2.272;2023-05-10T14:52:29;5.78;;;2.83;;
10226;SDS011;15634;48.766;2.272;2023-05-10T14:54:56;8.80;;;2.90;;